Terminal Aerodrome Forecast
Issued by NWS

Home | Current Version | Previous Version | Graphics & Text | Print | Product List | Glossary On
Versions: 1 2 3 4 5 6 7 8 9 10 11 12 13 14 15 16
627
FTUS43 KLSX 241120
TAFSUS
TAF
KSUS 241120Z 2412/2512 30004KT P6SM SKC
     FM241500 32009KT P6SM SKC
     FM250200 27004KT P6SM FEW250=

USA.gov is the U.S. government's official web portal to all federal, state and local government web resources and services.